sensor_id;sensor_type;location;lat;lon;timestamp;P1;durP1;ratioP1;P2;durP2;ratioP2
9330;SDS011;4704;50.470;12.072;2023-02-22T00:01:20;1.20;;;1.10;;
9330;SDS011;4704;50.470;12.072;2023-02-22T00:03:59;1.13;;;1.02;;
9330;SDS011;4704;50.470;12.072;2023-02-22T00:06:27;0.90;;;0.90;;
9330;SDS011;4704;50.470;12.072;2023-02-22T00:08:57;1.30;;;1.20;;
9330;SDS011;4704;50.470;12.072;2023-02-22T00:11:26;1.00;;;0.90;;
9330;SDS011;4704;50.470;12.072;2023-02-22T00:13:55;0.90;;;0.90;;
9330;SDS011;4704;50.470;12.072;2023-02-22T00:16:23;1.20;;;1.10;;
9330;SDS011;4704;50.470;12.072;2023-02-22T00:18:52;1.10;;;1.00;;
9330;SDS011;4704;50.470;12.072;2023-02-22T00:21:19;0.93;;;0.93;;
9330;SDS011;4704;50.470;12.072;2023-02-22T00:23:47;1.20;;;1.10;;
9330;SDS011;4704;50.470;12.072;2023-02-22T00:26:17;0.90;;;0.90;;
9330;SDS011;4704;50.470;12.072;2023-02-22T00:28:46;1.15;;;1.05;;
9330;SDS011;4704;50.470;12.072;2023-02-22T00:31:14;1.00;;;1.00;;
9330;SDS011;4704;50.470;12.072;2023-02-22T00:33:41;0.93;;;0.85;;
9330;SDS011;4704;50.470;12.072;2023-02-22T00:36:09;1.20;;;1.10;;
9330;SDS011;4704;50.470;12.072;2023-02-22T00:38:37;1.27;;;1.17;;
9330;SDS011;4704;50.470;12.072;2023-02-22T00:41:05;1.00;;;0.90;;
9330;SDS011;4704;50.470;12.072;2023-02-22T00:43:34;1.00;;;0.90;;
9330;SDS011;4704;50.470;12.072;2023-02-22T00:46:02;1.20;;;1.10;;
9330;SDS011;4704;50.470;12.072;2023-02-22T00:48:30;1.10;;;1.00;;
9330;SDS011;4704;50.470;12.072;2023-02-22T00:50:58;1.20;;;1.10;;
9330;SDS011;4704;50.470;12.072;2023-02-22T00:53:26;0.95;;;0.90;;
9330;SDS011;4704;50.470;12.072;2023-02-22T00:55:54;1.08;;;0.98;;
9330;SDS011;4704;50.470;12.072;2023-02-22T00:58:21;0.98;;;0.98;;
9330;SDS011;4704;50.470;12.072;2023-02-22T01:00:52;1.17;;;1.08;;
9330;SDS011;4704;50.470;12.072;2023-02-22T01:03:20;0.88;;;0.88;;
9330;SDS011;4704;50.470;12.072;2023-02-22T01:05:48;1.15;;;1.15;;
9330;SDS011;4704;50.470;12.072;2023-02-22T01:08:16;1.10;;;1.00;;
9330;SDS011;4704;50.470;12.072;2023-02-22T01:10:44;1.20;;;0.90;;
9330;SDS011;4704;50.470;12.072;2023-02-22T01:13:12;1.00;;;0.93;;
9330;SDS011;4704;50.470;12.072;2023-02-22T01:15:41;1.13;;;1.02;;
9330;SDS011;4704;50.470;12.072;2023-02-22T01:18:11;0.80;;;0.80;;
9330;SDS011;4704;50.470;12.072;2023-02-22T01:20:41;0.80;;;0.80;;
9330;SDS011;4704;50.470;12.072;2023-02-22T01:23:12;0.90;;;0.90;;
9330;SDS011;4704;50.470;12.072;2023-02-22T01:25:41;0.75;;;0.75;;
9330;SDS011;4704;50.470;12.072;2023-02-22T01:28:09;1.20;;;1.10;;
9330;SDS011;4704;50.470;12.072;2023-02-22T01:30:37;1.50;;;0.88;;
9330;SDS011;4704;50.470;12.072;2023-02-22T01:33:06;1.08;;;1.00;;
9330;SDS011;4704;50.470;12.072;2023-02-22T01:35:36;1.23;;;1.10;;
9330;SDS011;4704;50.470;12.072;2023-02-22T01:38:06;0.90;;;0.90;;
9330;SDS011;4704;50.470;12.072;2023-02-22T01:40:35;0.93;;;0.93;;
9330;SDS011;4704;50.470;12.072;2023-02-22T01:43:17;0.77;;;0.77;;
9330;SDS011;4704;50.470;12.072;2023-02-22T01:45:55;1.10;;;1.00;;
9330;SDS011;4704;50.470;12.072;2023-02-22T01:48:38;0.80;;;0.80;;
9330;SDS011;4704;50.470;12.072;2023-02-22T01:51:10;1.00;;;0.90;;
9330;SDS011;4704;50.470;12.072;2023-02-22T01:53:40;0.80;;;0.80;;
9330;SDS011;4704;50.470;12.072;2023-02-22T01:56:09;0.90;;;0.90;;
9330;SDS011;4704;50.470;12.072;2023-02-22T01:58:39;1.20;;;1.10;;
9330;SDS011;4704;50.470;12.072;2023-02-22T02:01:07;0.75;;;0.75;;
9330;SDS011;4704;50.470;12.072;2023-02-22T02:03:36;1.02;;;1.02;;
9330;SDS011;4704;50.470;12.072;2023-02-22T02:06:05;0.95;;;0.95;;
9330;SDS011;4704;50.470;12.072;2023-02-22T02:08:40;0.90;;;0.90;;
9330;SDS011;4704;50.470;12.072;2023-02-22T02:11:14;0.93;;;0.93;;
9330;SDS011;4704;50.470;12.072;2023-02-22T02:13:42;0.70;;;0.70;;
9330;SDS011;4704;50.470;12.072;2023-02-22T02:16:10;1.23;;;1.13;;
9330;SDS011;4704;50.470;12.072;2023-02-22T02:18:38;0.98;;;0.88;;
9330;SDS011;4704;50.470;12.072;2023-02-22T02:21:24;0.93;;;0.90;;
9330;SDS011;4704;50.470;12.072;2023-02-22T02:29:45;0.80;;;0.80;;
9330;SDS011;4704;50.470;12.072;2023-02-22T02:32:20;0.82;;;0.82;;
9330;SDS011;4704;50.470;12.072;2023-02-22T02:34:51;1.10;;;1.00;;
9330;SDS011;4704;50.470;12.072;2023-02-22T02:37:24;0.70;;;0.70;;
9330;SDS011;4704;50.470;12.072;2023-02-22T02:39:55;0.80;;;0.80;;
9330;SDS011;4704;50.470;12.072;2023-02-22T02:42:24;0.93;;;0.82;;
9330;SDS011;4704;50.470;12.072;2023-02-22T02:44:54;0.68;;;0.68;;
9330;SDS011;4704;50.470;12.072;2023-02-22T02:47:26;0.90;;;0.80;;
9330;SDS011;4704;50.470;12.072;2023-02-22T02:49:57;0.95;;;0.85;;
9330;SDS011;4704;50.470;12.072;2023-02-22T02:52:26;1.05;;;0.90;;
9330;SDS011;4704;50.470;12.072;2023-02-22T02:54:54;0.70;;;0.70;;
9330;SDS011;4704;50.470;12.072;2023-02-22T02:57:22;0.90;;;0.70;;
9330;SDS011;4704;50.470;12.072;2023-02-22T02:59:50;0.80;;;0.80;;
9330;SDS011;4704;50.470;12.072;2023-02-22T03:02:26;0.70;;;0.70;;
9330;SDS011;4704;50.470;12.072;2023-02-22T03:05:11;1.00;;;0.90;;
9330;SDS011;4704;50.470;12.072;2023-02-22T03:07:44;0.73;;;0.73;;
9330;SDS011;4704;50.470;12.072;2023-02-22T03:10:18;0.85;;;0.85;;
9330;SDS011;4704;50.470;12.072;2023-02-22T03:12:47;0.70;;;0.70;;
9330;SDS011;4704;50.470;12.072;2023-02-22T03:15:18;0.70;;;0.70;;
9330;SDS011;4704;50.470;12.072;2023-02-22T03:17:53;0.80;;;0.80;;
9330;SDS011;4704;50.470;12.072;2023-02-22T03:20:25;0.80;;;0.80;;
9330;SDS011;4704;50.470;12.072;2023-02-22T03:22:57;0.77;;;0.77;;
9330;SDS011;4704;50.470;12.072;2023-02-22T03:25:27;0.98;;;0.80;;
9330;SDS011;4704;50.470;12.072;2023-02-22T03:27:59;0.80;;;0.80;;
9330;SDS011;4704;50.470;12.072;2023-02-22T03:30:31;0.80;;;0.80;;
9330;SDS011;4704;50.470;12.072;2023-02-22T03:33:04;0.77;;;0.77;;
9330;SDS011;4704;50.470;12.072;2023-02-22T03:35:36;0.80;;;0.80;;
9330;SDS011;4704;50.470;12.072;2023-02-22T03:38:06;1.00;;;0.70;;
9330;SDS011;4704;50.470;12.072;2023-02-22T03:40:38;0.80;;;0.80;;
9330;SDS011;4704;50.470;12.072;2023-02-22T03:43:09;0.60;;;0.60;;
9330;SDS011;4704;50.470;12.072;2023-02-22T03:45:40;0.70;;;0.70;;
9330;SDS011;4704;50.470;12.072;2023-02-22T03:48:13;0.75;;;0.60;;
9330;SDS011;4704;50.470;12.072;2023-02-22T03:50:43;0.75;;;0.70;;
9330;SDS011;4704;50.470;12.072;2023-02-22T03:53:10;0.73;;;0.73;;
9330;SDS011;4704;50.470;12.072;2023-02-22T03:55:38;0.70;;;0.70;;
9330;SDS011;4704;50.470;12.072;2023-02-22T03:58:08;0.75;;;0.63;;
9330;SDS011;4704;50.470;12.072;2023-02-22T04:00:36;0.70;;;0.70;;
9330;SDS011;4704;50.470;12.072;2023-02-22T04:03:08;0.88;;;0.88;;
9330;SDS011;4704;50.470;12.072;2023-02-22T04:05:38;0.77;;;0.75;;
9330;SDS011;4704;50.470;12.072;2023-02-22T04:08:05;0.68;;;0.68;;
9330;SDS011;4704;50.470;12.072;2023-02-22T04:10:33;0.60;;;0.60;;
9330;SDS011;4704;50.470;12.072;2023-02-22T04:13:02;0.55;;;0.55;;
9330;SDS011;4704;50.470;12.072;2023-02-22T04:15:31;0.70;;;0.70;;
9330;SDS011;4704;50.470;12.072;2023-02-22T04:17:58;0.65;;;0.65;;
9330;SDS011;4704;50.470;12.072;2023-02-22T04:20:26;0.70;;;0.70;;
9330;SDS011;4704;50.470;12.072;2023-02-22T04:22:55;0.70;;;0.70;;
9330;SDS011;4704;50.470;12.072;2023-02-22T04:25:23;0.70;;;0.70;;
9330;SDS011;4704;50.470;12.072;2023-02-22T04:27:51;1.05;;;0.68;;
9330;SDS011;4704;50.470;12.072;2023-02-22T04:30:19;0.75;;;0.70;;
9330;SDS011;4704;50.470;12.072;2023-02-22T04:32:47;0.80;;;0.80;;
9330;SDS011;4704;50.470;12.072;2023-02-22T04:35:15;0.60;;;0.60;;
9330;SDS011;4704;50.470;12.072;2023-02-22T04:37:43;0.60;;;0.60;;
9330;SDS011;4704;50.470;12.072;2023-02-22T04:40:12;0.65;;;0.65;;
9330;SDS011;4704;50.470;12.072;2023-02-22T04:42:41;0.80;;;0.80;;
9330;SDS011;4704;50.470;12.072;2023-02-22T04:45:08;0.60;;;0.60;;
9330;SDS011;4704;50.470;12.072;2023-02-22T04:47:36;0.68;;;0.60;;
9330;SDS011;4704;50.470;12.072;2023-02-22T04:50:04;1.02;;;0.70;;
9330;SDS011;4704;50.470;12.072;2023-02-22T04:52:32;0.70;;;0.60;;
9330;SDS011;4704;50.470;12.072;2023-02-22T04:55:00;0.63;;;0.63;;
9330;SDS011;4704;50.470;12.072;2023-02-22T04:57:30;0.60;;;0.60;;
9330;SDS011;4704;50.470;12.072;2023-02-22T04:59:58;0.70;;;0.70;;
9330;SDS011;4704;50.470;12.072;2023-02-22T05:02:25;0.65;;;0.65;;
9330;SDS011;4704;50.470;12.072;2023-02-22T05:04:53;0.70;;;0.70;;
9330;SDS011;4704;50.470;12.072;2023-02-22T05:07:21;0.50;;;0.50;;
9330;SDS011;4704;50.470;12.072;2023-02-22T05:09:49;0.70;;;0.70;;
9330;SDS011;4704;50.470;12.072;2023-02-22T05:12:16;0.60;;;0.60;;
9330;SDS011;4704;50.470;12.072;2023-02-22T05:14:46;0.82;;;0.73;;
9330;SDS011;4704;50.470;12.072;2023-02-22T05:17:13;0.70;;;0.70;;
9330;SDS011;4704;50.470;12.072;2023-02-22T05:19:41;0.70;;;0.70;;
9330;SDS011;4704;50.470;12.072;2023-02-22T05:22:09;0.70;;;0.70;;
9330;SDS011;4704;50.470;12.072;2023-02-22T05:24:36;0.60;;;0.60;;
9330;SDS011;4704;50.470;12.072;2023-02-22T05:27:04;0.60;;;0.60;;
9330;SDS011;4704;50.470;12.072;2023-02-22T05:29:32;0.52;;;0.52;;
9330;SDS011;4704;50.470;12.072;2023-02-22T05:32:01;0.60;;;0.50;;
9330;SDS011;4704;50.470;12.072;2023-02-22T05:34:29;0.60;;;0.60;;
9330;SDS011;4704;50.470;12.072;2023-02-22T05:36:56;1.23;;;0.77;;
9330;SDS011;4704;50.470;12.072;2023-02-22T05:39:24;0.70;;;0.70;;
9330;SDS011;4704;50.470;12.072;2023-02-22T05:41:51;0.63;;;0.63;;
9330;SDS011;4704;50.470;12.072;2023-02-22T05:44:19;0.70;;;0.70;;
9330;SDS011;4704;50.470;12.072;2023-02-22T05:46:47;0.60;;;0.60;;
9330;SDS011;4704;50.470;12.072;2023-02-22T05:49:16;0.73;;;0.73;;
9330;SDS011;4704;50.470;12.072;2023-02-22T05:51:44;0.60;;;0.60;;
9330;SDS011;4704;50.470;12.072;2023-02-22T05:54:11;0.63;;;0.63;;
9330;SDS011;4704;50.470;12.072;2023-02-22T05:56:39;0.73;;;0.73;;
9330;SDS011;4704;50.470;12.072;2023-02-22T05:59:07;0.60;;;0.60;;
9330;SDS011;4704;50.470;12.072;2023-02-22T06:01:34;0.80;;;0.80;;
9330;SDS011;4704;50.470;12.072;2023-02-22T06:04:02;0.82;;;0.60;;
9330;SDS011;4704;50.470;12.072;2023-02-22T06:06:32;0.70;;;0.70;;
9330;SDS011;4704;50.470;12.072;2023-02-22T06:08:59;0.60;;;0.60;;
9330;SDS011;4704;50.470;12.072;2023-02-22T06:11:27;0.70;;;0.70;;
9330;SDS011;4704;50.470;12.072;2023-02-22T06:13:55;0.60;;;0.60;;
9330;SDS011;4704;50.470;12.072;2023-02-22T06:16:22;0.77;;;0.77;;
9330;SDS011;4704;50.470;12.072;2023-02-22T06:18:50;0.70;;;0.70;;
9330;SDS011;4704;50.470;12.072;2023-02-22T06:21:18;0.60;;;0.60;;
9330;SDS011;4704;50.470;12.072;2023-02-22T06:23:47;0.80;;;0.80;;
9330;SDS011;4704;50.470;12.072;2023-02-22T06:26:15;0.60;;;0.60;;
9330;SDS011;4704;50.470;12.072;2023-02-22T06:28:42;0.70;;;0.70;;
9330;SDS011;4704;50.470;12.072;2023-02-22T06:31:10;0.70;;;0.70;;
9330;SDS011;4704;50.470;12.072;2023-02-22T06:33:37;0.57;;;0.57;;
9330;SDS011;4704;50.470;12.072;2023-02-22T06:36:06;1.48;;;0.70;;
9330;SDS011;4704;50.470;12.072;2023-02-22T06:38:33;0.50;;;0.50;;
9330;SDS011;4704;50.470;12.072;2023-02-22T06:41:03;0.70;;;0.70;;
9330;SDS011;4704;50.470;12.072;2023-02-22T06:43:31;0.70;;;0.70;;
9330;SDS011;4704;50.470;12.072;2023-02-22T06:45:58;0.70;;;0.70;;
9330;SDS011;4704;50.470;12.072;2023-02-22T06:48:26;1.00;;;0.75;;
9330;SDS011;4704;50.470;12.072;2023-02-22T06:50:53;0.93;;;0.55;;
9330;SDS011;4704;50.470;12.072;2023-02-22T06:53:21;0.70;;;0.70;;
9330;SDS011;4704;50.470;12.072;2023-02-22T06:55:49;0.85;;;0.85;;
9330;SDS011;4704;50.470;12.072;2023-02-22T06:58:21;0.60;;;0.43;;
9330;SDS011;4704;50.470;12.072;2023-02-22T07:00:48;1.17;;;0.80;;
9330;SDS011;4704;50.470;12.072;2023-02-22T07:03:16;0.68;;;0.68;;
9330;SDS011;4704;50.470;12.072;2023-02-22T07:05:43;0.80;;;0.75;;
9330;SDS011;4704;50.470;12.072;2023-02-22T07:08:11;0.95;;;0.85;;
9330;SDS011;4704;50.470;12.072;2023-02-22T07:10:39;1.27;;;0.80;;
9330;SDS011;4704;50.470;12.072;2023-02-22T07:13:07;0.70;;;0.60;;
9330;SDS011;4704;50.470;12.072;2023-02-22T07:15:36;0.73;;;0.73;;
9330;SDS011;4704;50.470;12.072;2023-02-22T07:18:04;0.77;;;0.77;;
9330;SDS011;4704;50.470;12.072;2023-02-22T07:20:34;0.77;;;0.70;;
9330;SDS011;4704;50.470;12.072;2023-02-22T07:23:02;0.77;;;0.77;;
9330;SDS011;4704;50.470;12.072;2023-02-22T07:25:30;0.90;;;0.68;;
9330;SDS011;4704;50.470;12.072;2023-02-22T07:27:57;1.48;;;1.00;;
9330;SDS011;4704;50.470;12.072;2023-02-22T07:30:25;0.82;;;0.82;;
9330;SDS011;4704;50.470;12.072;2023-02-22T07:32:57;1.50;;;0.80;;
9330;SDS011;4704;50.470;12.072;2023-02-22T07:35:25;0.85;;;0.85;;
9330;SDS011;4704;50.470;12.072;2023-02-22T07:37:53;1.10;;;1.00;;
9330;SDS011;4704;50.470;12.072;2023-02-22T07:40:20;1.02;;;0.90;;
9330;SDS011;4704;50.470;12.072;2023-02-22T07:42:52;1.00;;;0.95;;
9330;SDS011;4704;50.470;12.072;2023-02-22T07:45:20;1.10;;;0.70;;
9330;SDS011;4704;50.470;12.072;2023-02-22T07:47:48;1.05;;;0.80;;
9330;SDS011;4704;50.470;12.072;2023-02-22T07:50:17;1.48;;;1.02;;
9330;SDS011;4704;50.470;12.072;2023-02-22T07:52:45;0.80;;;0.80;;
9330;SDS011;4704;50.470;12.072;2023-02-22T07:55:13;0.90;;;0.90;;
9330;SDS011;4704;50.470;12.072;2023-02-22T07:57:42;0.80;;;0.80;;
9330;SDS011;4704;50.470;12.072;2023-02-22T08:00:10;0.90;;;0.80;;
9330;SDS011;4704;50.470;12.072;2023-02-22T08:02:38;1.15;;;1.00;;
9330;SDS011;4704;50.470;12.072;2023-02-22T08:05:07;0.95;;;0.80;;
9330;SDS011;4704;50.470;12.072;2023-02-22T08:07:36;1.23;;;1.00;;
9330;SDS011;4704;50.470;12.072;2023-02-22T08:10:04;1.08;;;0.98;;
9330;SDS011;4704;50.470;12.072;2023-02-22T08:12:32;1.20;;;1.10;;
9330;SDS011;4704;50.470;12.072;2023-02-22T08:15:00;1.80;;;1.00;;
9330;SDS011;4704;50.470;12.072;2023-02-22T08:17:28;1.17;;;1.00;;
9330;SDS011;4704;50.470;12.072;2023-02-22T08:19:55;1.00;;;0.90;;
9330;SDS011;4704;50.470;12.072;2023-02-22T08:22:23;1.10;;;1.00;;
9330;SDS011;4704;50.470;12.072;2023-02-22T08:24:53;1.20;;;1.00;;
9330;SDS011;4704;50.470;12.072;2023-02-22T08:27:24;1.10;;;1.00;;
9330;SDS011;4704;50.470;12.072;2023-02-22T08:29:52;1.00;;;1.00;;
9330;SDS011;4704;50.470;12.072;2023-02-22T08:32:20;1.00;;;1.00;;
9330;SDS011;4704;50.470;12.072;2023-02-22T08:34:48;1.30;;;1.00;;
9330;SDS011;4704;50.470;12.072;2023-02-22T08:37:16;1.33;;;0.80;;
9330;SDS011;4704;50.470;12.072;2023-02-22T08:39:44;0.90;;;0.90;;
9330;SDS011;4704;50.470;12.072;2023-02-22T08:42:13;0.80;;;0.80;;
9330;SDS011;4704;50.470;12.072;2023-02-22T08:44:40;1.20;;;0.98;;
9330;SDS011;4704;50.470;12.072;2023-02-22T08:47:08;0.88;;;0.82;;
9330;SDS011;4704;50.470;12.072;2023-02-22T08:49:36;1.83;;;0.98;;
9330;SDS011;4704;50.470;12.072;2023-02-22T08:52:03;1.20;;;1.10;;
9330;SDS011;4704;50.470;12.072;2023-02-22T08:54:31;1.10;;;0.90;;
9330;SDS011;4704;50.470;12.072;2023-02-22T08:56:59;1.10;;;1.00;;
9330;SDS011;4704;50.470;12.072;2023-02-22T08:59:28;0.98;;;0.88;;
9330;SDS011;4704;50.470;12.072;2023-02-22T09:01:56;1.55;;;1.02;;
9330;SDS011;4704;50.470;12.072;2023-02-22T09:04:23;0.90;;;0.90;;
9330;SDS011;4704;50.470;12.072;2023-02-22T09:06:51;3.28;;;1.10;;
9330;SDS011;4704;50.470;12.072;2023-02-22T09:09:19;2.13;;;1.10;;
9330;SDS011;4704;50.470;12.072;2023-02-22T09:11:46;1.10;;;0.90;;
9330;SDS011;4704;50.470;12.072;2023-02-22T09:14:14;1.20;;;0.95;;
9330;SDS011;4704;50.470;12.072;2023-02-22T09:16:43;0.98;;;0.90;;
9330;SDS011;4704;50.470;12.072;2023-02-22T09:19:11;1.45;;;0.90;;
9330;SDS011;4704;50.470;12.072;2023-02-22T09:21:38;3.53;;;1.02;;
9330;SDS011;4704;50.470;12.072;2023-02-22T09:24:06;2.08;;;1.00;;
9330;SDS011;4704;50.470;12.072;2023-02-22T09:26:34;1.40;;;0.90;;
9330;SDS011;4704;50.470;12.072;2023-02-22T09:29:04;1.10;;;1.00;;
9330;SDS011;4704;50.470;12.072;2023-02-22T09:31:34;1.10;;;1.00;;
9330;SDS011;4704;50.470;12.072;2023-02-22T09:34:03;1.88;;;1.10;;
9330;SDS011;4704;50.470;12.072;2023-02-22T09:36:38;1.17;;;1.00;;
9330;SDS011;4704;50.470;12.072;2023-02-22T09:39:05;1.00;;;0.93;;
9330;SDS011;4704;50.470;12.072;2023-02-22T09:41:35;1.63;;;0.93;;
9330;SDS011;4704;50.470;12.072;2023-02-22T09:44:08;1.42;;;1.05;;
9330;SDS011;4704;50.470;12.072;2023-02-22T09:46:39;1.60;;;0.90;;
9330;SDS011;4704;50.470;12.072;2023-02-22T09:49:15;1.30;;;0.80;;
9330;SDS011;4704;50.470;12.072;2023-02-22T09:51:46;1.85;;;1.17;;
9330;SDS011;4704;50.470;12.072;2023-02-22T09:54:17;1.98;;;0.93;;
9330;SDS011;4704;50.470;12.072;2023-02-22T09:56:45;1.00;;;0.90;;
9330;SDS011;4704;50.470;12.072;2023-02-22T09:59:16;1.50;;;0.82;;
9330;SDS011;4704;50.470;12.072;2023-02-22T10:01:46;1.52;;;0.85;;
9330;SDS011;4704;50.470;12.072;2023-02-22T10:04:18;2.55;;;1.02;;
9330;SDS011;4704;50.470;12.072;2023-02-22T10:06:55;1.10;;;0.93;;
9330;SDS011;4704;50.470;12.072;2023-02-22T10:09:30;1.48;;;1.13;;
9330;SDS011;4704;50.470;12.072;2023-02-22T10:11:59;1.00;;;0.90;;
9330;SDS011;4704;50.470;12.072;2023-02-22T10:14:41;1.70;;;1.20;;
9330;SDS011;4704;50.470;12.072;2023-02-22T10:17:12;1.00;;;0.90;;
9330;SDS011;4704;50.470;12.072;2023-02-22T10:19:44;0.90;;;0.90;;
9330;SDS011;4704;50.470;12.072;2023-02-22T10:24:57;1.10;;;0.90;;
9330;SDS011;4704;50.470;12.072;2023-02-22T10:27:29;0.90;;;0.80;;
9330;SDS011;4704;50.470;12.072;2023-02-22T10:29:59;1.35;;;1.13;;
9330;SDS011;4704;50.470;12.072;2023-02-22T10:32:31;2.10;;;0.98;;
9330;SDS011;4704;50.470;12.072;2023-02-22T10:35:02;1.73;;;1.00;;
9330;SDS011;4704;50.470;12.072;2023-02-22T10:37:31;1.25;;;1.02;;
9330;SDS011;4704;50.470;12.072;2023-02-22T10:40:00;1.05;;;1.00;;
9330;SDS011;4704;50.470;12.072;2023-02-22T10:42:30;1.13;;;1.02;;
9330;SDS011;4704;50.470;12.072;2023-02-22T10:44:58;1.45;;;0.90;;
9330;SDS011;4704;50.470;12.072;2023-02-22T10:47:26;0.93;;;0.82;;
9330;SDS011;4704;50.470;12.072;2023-02-22T10:49:55;1.20;;;1.10;;
9330;SDS011;4704;50.470;12.072;2023-02-22T10:52:26;0.95;;;0.90;;
9330;SDS011;4704;50.470;12.072;2023-02-22T10:54:55;1.27;;;0.98;;
9330;SDS011;4704;50.470;12.072;2023-02-22T10:57:24;3.10;;;0.90;;
9330;SDS011;4704;50.470;12.072;2023-02-22T10:59:52;1.55;;;1.00;;
9330;SDS011;4704;50.470;12.072;2023-02-22T11:02:23;0.80;;;0.80;;
9330;SDS011;4704;50.470;12.072;2023-02-22T11:04:51;1.95;;;1.10;;
9330;SDS011;4704;50.470;12.072;2023-02-22T11:07:20;1.05;;;0.95;;
9330;SDS011;4704;50.470;12.072;2023-02-22T11:09:51;1.42;;;1.10;;
9330;SDS011;4704;50.470;12.072;2023-02-22T11:12:27;1.73;;;0.95;;
9330;SDS011;4704;50.470;12.072;2023-02-22T11:14:54;1.20;;;1.02;;
9330;SDS011;4704;50.470;12.072;2023-02-22T11:17:26;2.55;;;1.00;;
9330;SDS011;4704;50.470;12.072;2023-02-22T11:19:55;1.80;;;0.98;;
9330;SDS011;4704;50.470;12.072;2023-02-22T11:22:24;1.70;;;0.95;;
9330;SDS011;4704;50.470;12.072;2023-02-22T11:24:58;2.55;;;0.98;;
9330;SDS011;4704;50.470;12.072;2023-02-22T11:27:36;1.50;;;1.05;;
9330;SDS011;4704;50.470;12.072;2023-02-22T11:30:17;2.15;;;1.00;;
9330;SDS011;4704;50.470;12.072;2023-02-22T11:32:47;1.58;;;1.15;;
9330;SDS011;4704;50.470;12.072;2023-02-22T11:35:21;3.08;;;1.00;;
9330;SDS011;4704;50.470;12.072;2023-02-22T11:38:04;2.20;;;1.00;;
9330;SDS011;4704;50.470;12.072;2023-02-22T11:40:37;3.60;;;1.20;;
9330;SDS011;4704;50.470;12.072;2023-02-22T11:43:08;1.20;;;0.98;;
9330;SDS011;4704;50.470;12.072;2023-02-22T11:45:36;1.55;;;0.90;;
9330;SDS011;4704;50.470;12.072;2023-02-22T11:48:05;1.05;;;0.93;;
9330;SDS011;4704;50.470;12.072;2023-02-22T11:50:36;2.30;;;1.17;;
9330;SDS011;4704;50.470;12.072;2023-02-22T11:55:57;1.95;;;1.10;;
9330;SDS011;4704;50.470;12.072;2023-02-22T11:58:31;1.52;;;0.88;;
9330;SDS011;4704;50.470;12.072;2023-02-22T12:01:04;1.10;;;1.00;;
9330;SDS011;4704;50.470;12.072;2023-02-22T12:03:48;1.10;;;0.95;;
9330;SDS011;4704;50.470;12.072;2023-02-22T12:06:25;2.25;;;1.08;;
9330;SDS011;4704;50.470;12.072;2023-02-22T12:08:58;1.15;;;1.00;;
9330;SDS011;4704;50.470;12.072;2023-02-22T12:11:30;1.00;;;0.90;;
9330;SDS011;4704;50.470;12.072;2023-02-22T12:14:09;1.02;;;0.88;;
9330;SDS011;4704;50.470;12.072;2023-02-22T12:16:41;1.20;;;1.10;;
9330;SDS011;4704;50.470;12.072;2023-02-22T12:19:18;0.80;;;0.80;;
9330;SDS011;4704;50.470;12.072;2023-02-22T12:21:51;2.60;;;0.90;;
9330;SDS011;4704;50.470;12.072;2023-02-22T12:24:21;1.15;;;0.90;;
9330;SDS011;4704;50.470;12.072;2023-02-22T12:26:52;1.23;;;0.98;;
9330;SDS011;4704;50.470;12.072;2023-02-22T12:29:25;1.33;;;1.00;;
9330;SDS011;4704;50.470;12.072;2023-02-22T12:31:54;1.13;;;0.90;;
9330;SDS011;4704;50.470;12.072;2023-02-22T12:34:25;0.80;;;0.80;;
9330;SDS011;4704;50.470;12.072;2023-02-22T12:36:57;1.10;;;1.00;;
9330;SDS011;4704;50.470;12.072;2023-02-22T12:39:32;1.05;;;0.95;;
9330;SDS011;4704;50.470;12.072;2023-02-22T12:42:05;1.35;;;0.70;;
9330;SDS011;4704;50.470;12.072;2023-02-22T12:44:40;2.85;;;0.90;;
9330;SDS011;4704;50.470;12.072;2023-02-22T12:47:12;1.42;;;0.73;;
9330;SDS011;4704;50.470;12.072;2023-02-22T12:49:41;2.72;;;0.80;;
9330;SDS011;4704;50.470;12.072;2023-02-22T12:52:12;3.03;;;0.88;;
9330;SDS011;4704;50.470;12.072;2023-02-22T12:54:42;1.60;;;0.90;;
9330;SDS011;4704;50.470;12.072;2023-02-22T12:57:16;1.25;;;0.88;;
9330;SDS011;4704;50.470;12.072;2023-02-22T12:59:46;1.98;;;0.73;;
9330;SDS011;4704;50.470;12.072;2023-02-22T13:02:17;1.45;;;0.82;;
9330;SDS011;4704;50.470;12.072;2023-02-22T13:04:45;1.60;;;1.00;;
9330;SDS011;4704;50.470;12.072;2023-02-22T13:07:17;1.67;;;1.08;;
9330;SDS011;4704;50.470;12.072;2023-02-22T13:09:53;2.50;;;0.80;;
9330;SDS011;4704;50.470;12.072;2023-02-22T13:12:25;3.03;;;1.05;;
9330;SDS011;4704;50.470;12.072;2023-02-22T13:14:57;2.35;;;0.88;;
9330;SDS011;4704;50.470;12.072;2023-02-22T13:17:28;3.20;;;0.90;;
9330;SDS011;4704;50.470;12.072;2023-02-22T13:19:59;1.55;;;0.90;;
9330;SDS011;4704;50.470;12.072;2023-02-22T13:22:32;3.33;;;0.95;;
9330;SDS011;4704;50.470;12.072;2023-02-22T13:25:03;1.30;;;0.93;;
9330;SDS011;4704;50.470;12.072;2023-02-22T13:27:39;1.40;;;1.08;;
9330;SDS011;4704;50.470;12.072;2023-02-22T13:30:16;2.38;;;1.00;;
9330;SDS011;4704;50.470;12.072;2023-02-22T13:35:39;1.75;;;0.77;;
9330;SDS011;4704;50.470;12.072;2023-02-22T13:41:19;1.55;;;1.08;;
9330;SDS011;4704;50.470;12.072;2023-02-22T13:44:03;0.80;;;0.75;;
9330;SDS011;4704;50.470;12.072;2023-02-22T13:46:46;1.27;;;1.17;;
9330;SDS011;4704;50.470;12.072;2023-02-22T13:49:25;1.95;;;1.02;;
9330;SDS011;4704;50.470;12.072;2023-02-22T13:52:05;1.67;;;0.88;;
9330;SDS011;4704;50.470;12.072;2023-02-22T13:54:45;2.50;;;1.10;;
9330;SDS011;4704;50.470;12.072;2023-02-22T13:57:19;1.85;;;1.05;;
9330;SDS011;4704;50.470;12.072;2023-02-22T13:59:49;1.42;;;0.90;;
9330;SDS011;4704;50.470;12.072;2023-02-22T14:05:34;1.75;;;1.10;;
9330;SDS011;4704;50.470;12.072;2023-02-22T14:08:01;1.67;;;1.00;;
9330;SDS011;4704;50.470;12.072;2023-02-22T14:10:43;1.48;;;1.10;;
9330;SDS011;4704;50.470;12.072;2023-02-22T14:13:11;1.55;;;1.10;;
9330;SDS011;4704;50.470;12.072;2023-02-22T14:18:24;1.60;;;1.15;;
9330;SDS011;4704;50.470;12.072;2023-02-22T14:21:02;2.05;;;1.00;;
9330;SDS011;4704;50.470;12.072;2023-02-22T14:23:33;2.28;;;1.30;;
9330;SDS011;4704;50.470;12.072;2023-02-22T14:26:11;3.85;;;1.27;;
9330;SDS011;4704;50.470;12.072;2023-02-22T14:28:41;1.85;;;1.15;;
9330;SDS011;4704;50.470;12.072;2023-02-22T14:31:11;2.40;;;1.30;;
9330;SDS011;4704;50.470;12.072;2023-02-22T14:33:51;1.85;;;1.30;;
9330;SDS011;4704;50.470;12.072;2023-02-22T14:36:20;2.53;;;1.30;;
9330;SDS011;4704;50.470;12.072;2023-02-22T14:38:47;2.55;;;1.50;;
9330;SDS011;4704;50.470;12.072;2023-02-22T14:41:18;1.58;;;1.27;;
9330;SDS011;4704;50.470;12.072;2023-02-22T14:43:48;2.20;;;1.42;;
9330;SDS011;4704;50.470;12.072;2023-02-22T14:46:18;2.75;;;1.33;;
9330;SDS011;4704;50.470;12.072;2023-02-22T14:48:48;2.05;;;1.13;;
9330;SDS011;4704;50.470;12.072;2023-02-22T14:51:20;2.95;;;1.42;;
9330;SDS011;4704;50.470;12.072;2023-02-22T14:53:49;2.05;;;1.10;;
9330;SDS011;4704;50.470;12.072;2023-02-22T14:56:18;2.65;;;1.70;;
9330;SDS011;4704;50.470;12.072;2023-02-22T14:58:48;2.28;;;1.40;;
9330;SDS011;4704;50.470;12.072;2023-02-22T15:01:22;2.47;;;1.50;;
9330;SDS011;4704;50.470;12.072;2023-02-22T15:03:50;2.13;;;1.50;;
9330;SDS011;4704;50.470;12.072;2023-02-22T15:06:25;2.83;;;1.73;;
9330;SDS011;4704;50.470;12.072;2023-02-22T15:09:07;2.08;;;1.20;;
9330;SDS011;4704;50.470;12.072;2023-02-22T15:11:35;3.03;;;1.40;;
9330;SDS011;4704;50.470;12.072;2023-02-22T15:14:12;2.85;;;1.40;;
9330;SDS011;4704;50.470;12.072;2023-02-22T15:16:41;2.42;;;1.50;;
9330;SDS011;4704;50.470;12.072;2023-02-22T15:19:12;2.75;;;1.30;;
9330;SDS011;4704;50.470;12.072;2023-02-22T15:21:46;2.13;;;1.40;;
9330;SDS011;4704;50.470;12.072;2023-02-22T15:24:17;1.40;;;1.20;;
9330;SDS011;4704;50.470;12.072;2023-02-22T15:26:46;3.33;;;1.60;;
9330;SDS011;4704;50.470;12.072;2023-02-22T15:29:15;2.58;;;1.38;;
9330;SDS011;4704;50.470;12.072;2023-02-22T15:31:44;1.85;;;1.50;;
9330;SDS011;4704;50.470;12.072;2023-02-22T15:34:19;3.15;;;1.70;;
9330;SDS011;4704;50.470;12.072;2023-02-22T15:36:50;2.15;;;1.38;;
9330;SDS011;4704;50.470;12.072;2023-02-22T15:39:22;3.10;;;1.33;;
9330;SDS011;4704;50.470;12.072;2023-02-22T15:42:00;2.28;;;1.20;;